createdAt,value
2023-10-25T00:01:31.320Z,13.77
2023-10-25T00:04:37.632Z,13.78
2023-10-25T00:07:44.549Z,13.79
2023-10-25T00:10:52.924Z,13.77
2023-10-25T00:13:59.760Z,13.78
2023-10-25T00:17:05.549Z,13.82
2023-10-25T00:20:13.105Z,13.83
2023-10-25T00:23:19.039Z,13.86
2023-10-25T00:26:28.256Z,13.87
2023-10-25T00:29:35.341Z,13.87
2023-10-25T00:32:42.973Z,13.87
2023-10-25T00:35:48.761Z,13.86
2023-10-25T00:38:55.387Z,13.86
2023-10-25T00:42:03.827Z,13.82
2023-10-25T00:45:13.043Z,13.81
2023-10-25T00:48:19.211Z,13.81
2023-10-25T00:51:28.175Z,13.81
2023-10-25T00:54:34.102Z,13.82
2023-10-25T00:57:43.566Z,13.86
2023-10-25T01:00:50.738Z,13.88
2023-10-25T01:03:58.630Z,13.91
2023-10-25T01:07:05.163Z,13.93
2023-10-25T01:10:13.521Z,13.89
2023-10-25T01:13:24.113Z,13.83
2023-10-25T01:16:30.989Z,13.79
2023-10-25T01:19:36.875Z,13.84
2023-10-25T01:22:46.157Z,13.81
2023-10-25T01:25:52.617Z,13.87
2023-10-25T01:28:59.270Z,13.95
2023-10-25T01:32:05.489Z,13.96
2023-10-25T01:35:13.365Z,13.97
2023-10-25T01:38:21.906Z,14.01
2023-10-25T01:41:28.686Z,14.01
2023-10-25T01:44:34.495Z,13.98
2023-10-25T01:47:41.682Z,13.95
2023-10-25T01:50:47.471Z,13.93
2023-10-25T01:53:56.688Z,13.94
2023-10-25T01:57:02.777Z,14.02
2023-10-25T02:00:11.316Z,14.07
2023-10-25T02:03:20.156Z,14.11
2023-10-25T02:06:26.715Z,14.26
2023-10-25T02:09:35.328Z,14.24
2023-10-25T02:12:42.019Z,14.24
2023-10-25T02:15:48.260Z,14.23
2023-10-25T02:18:55.044Z,14.22
2023-10-25T02:22:01.039Z,14.18
2023-10-25T02:25:11.751Z,14.16
2023-10-25T02:28:17.613Z,14.16
2023-10-25T02:31:24.401Z,14.07
2023-10-25T02:34:30.342Z,14.22
2023-10-25T02:37:36.981Z,14.17
2023-10-25T02:40:45.328Z,14.24
2023-10-25T02:43:52.630Z,14.20
2023-10-25T02:47:00.394Z,14.27
2023-10-25T02:50:07.999Z,14.27
2023-10-25T02:53:14.416Z,14.29
2023-10-25T02:56:23.648Z,14.31
2023-10-25T02:59:29.531Z,14.27
2023-10-25T03:02:36.305Z,14.32
2023-10-25T03:05:42.338Z,14.31
2023-10-25T03:08:50.698Z,14.26
2023-10-25T03:11:59.529Z,14.33
2023-10-25T03:15:06.375Z,14.32
2023-10-25T03:18:12.510Z,14.30
2023-10-25T03:21:19.366Z,14.26
2023-10-25T03:24:25.095Z,14.23
2023-10-25T03:27:34.296Z,14.20
2023-10-25T03:30:40.952Z,14.18
2023-10-25T03:33:49.687Z,14.14
2023-10-25T03:36:55.801Z,14.13
2023-10-25T03:40:02.761Z,14.05
2023-10-25T03:43:11.339Z,13.95
2023-10-25T03:46:18.101Z,13.91
2023-10-25T03:49:23.892Z,13.87
2023-10-25T03:52:30.592Z,13.81
2023-10-25T03:55:36.349Z,13.79
2023-10-25T03:58:46.406Z,13.75
2023-10-25T04:01:52.445Z,13.74
2023-10-25T04:04:59.507Z,13.73
2023-10-25T04:08:05.268Z,13.71
2023-10-25T04:11:12.017Z,13.68
2023-10-25T04:14:20.647Z,13.64
2023-10-25T04:17:27.311Z,13.62
2023-10-25T04:20:36.081Z,13.62
2023-10-25T04:23:44.018Z,13.61
2023-10-25T04:26:49.993Z,13.61
2023-10-25T04:30:00.152Z,13.64
2023-10-25T04:33:06.827Z,13.63
2023-10-25T04:36:13.587Z,13.65
2023-10-25T04:39:19.916Z,13.73
2023-10-25T04:42:26.648Z,13.74
2023-10-25T04:45:35.138Z,13.73
2023-10-25T04:48:41.870Z,13.67
2023-10-25T04:51:47.887Z,13.65
2023-10-25T04:54:54.708Z,13.64
2023-10-25T04:58:00.788Z,13.61
2023-10-25T05:01:18.540Z,13.55
2023-10-25T05:04:24.451Z,13.52
2023-10-25T05:07:31.969Z,13.55
2023-10-25T05:10:39.066Z,13.50
2023-10-25T05:13:47.077Z,13.42
2023-10-25T05:16:56.537Z,13.42
2023-10-25T05:20:04.514Z,13.41
2023-10-25T05:23:13.917Z,13.34
2023-10-25T05:26:21.552Z,13.21
2023-10-25T05:29:28.611Z,13.15
2023-10-25T05:32:41.083Z,12.99
2023-10-25T05:35:47.881Z,12.97
2023-10-25T05:38:55.611Z,12.95
2023-10-25T05:42:09.131Z,12.74
2023-10-25T05:45:15.844Z,12.88
2023-10-25T05:48:25.345Z,12.86
2023-10-25T05:51:33.032Z,12.87
2023-10-25T05:54:40.179Z,12.83
2023-10-25T05:57:48.452Z,12.81
2023-10-25T06:00:57.454Z,12.83
2023-10-25T06:04:12.571Z,12.82
2023-10-25T06:07:20.456Z,12.75
2023-10-25T06:10:30.403Z,12.66
2023-10-25T06:13:37.695Z,12.66
2023-10-25T06:16:44.568Z,12.63
2023-10-25T06:19:54.039Z,12.64
2023-10-25T06:23:01.340Z,12.63
2023-10-25T06:26:07.366Z,12.56
2023-10-25T06:29:14.107Z,12.51
2023-10-25T06:32:21.601Z,12.50
2023-10-25T06:35:31.016Z,12.45
2023-10-25T06:38:38.079Z,12.46
2023-10-25T06:41:48.170Z,12.48
2023-10-25T06:44:55.237Z,12.45
2023-10-25T06:48:02.898Z,12.54
2023-10-25T06:51:13.815Z,12.53
2023-10-25T06:54:21.429Z,12.48
2023-10-25T06:57:28.288Z,12.44
2023-10-25T07:00:36.968Z,12.48
2023-10-25T07:03:50.971Z,12.42
2023-10-25T07:07:02.138Z,12.43
2023-10-25T07:10:10.546Z,12.41
2023-10-25T07:13:17.257Z,12.35
2023-10-25T07:16:23.573Z,12.44
2023-10-25T07:19:30.258Z,12.50
2023-10-25T07:22:39.530Z,12.53
2023-10-25T07:25:46.775Z,12.55
2023-10-25T07:28:52.481Z,12.56
2023-10-25T07:31:59.128Z,12.55
2023-10-25T07:35:05.260Z,12.59
2023-10-25T07:38:14.467Z,12.60
2023-10-25T07:41:20.276Z,12.60
2023-10-25T07:44:26.994Z,12.63
2023-10-25T07:47:33.063Z,12.63
2023-10-25T07:50:39.786Z,12.64
2023-10-25T07:53:48.166Z,12.65
2023-10-25T08:00:04.128Z,12.72
2023-10-25T08:03:19.207Z,12.69
2023-10-25T08:06:25.721Z,12.69
2023-10-25T08:09:36.913Z,12.74
2023-10-25T08:12:42.731Z,12.81
2023-10-25T08:15:50.687Z,12.95
2023-10-25T08:18:56.702Z,13.02
2023-10-25T08:22:04.498Z,13.06
2023-10-25T08:25:13.480Z,13.09
2023-10-25T08:28:20.172Z,13.08
2023-10-25T08:31:26.525Z,13.11
2023-10-25T08:34:33.943Z,13.25
2023-10-25T08:37:42.350Z,13.34
2023-10-25T08:40:52.783Z,13.34
2023-10-25T08:43:59.177Z,13.34
2023-10-25T08:47:05.837Z,13.34
2023-10-25T08:50:15.395Z,13.35
2023-10-25T08:53:27.699Z,13.38
2023-10-25T08:56:36.299Z,13.37
2023-10-25T08:59:48.640Z,13.34
2023-10-25T09:02:58.306Z,13.30
2023-10-25T09:06:07.879Z,13.30
2023-10-25T09:09:14.254Z,13.25
2023-10-25T09:12:27.483Z,13.27
2023-10-25T09:15:34.144Z,13.23
2023-10-25T09:18:44.061Z,13.32
2023-10-25T09:21:50.009Z,13.38
2023-10-25T09:24:59.755Z,13.41
2023-10-25T09:28:08.820Z,13.41
2023-10-25T09:31:27.892Z,13.40
2023-10-25T09:34:33.928Z,13.43
2023-10-25T09:37:40.612Z,13.40
2023-10-25T09:40:47.273Z,13.40
2023-10-25T09:44:02.563Z,13.41
2023-10-25T09:47:13.961Z,13.43
2023-10-25T09:50:32.658Z,13.40
2023-10-25T09:53:47.679Z,13.41
2023-10-25T09:57:00.303Z,13.43
2023-10-25T10:00:12.507Z,13.43
2023-10-25T10:03:34.734Z,13.36
2023-10-25T10:06:54.105Z,13.29
2023-10-25T10:10:18.906Z,13.26
2023-10-25T10:13:25.829Z,13.24
2023-10-25T10:16:36.736Z,13.23
2023-10-25T10:19:44.751Z,13.21
2023-10-25T10:23:06.523Z,13.21
2023-10-25T10:26:13.406Z,13.19
2023-10-25T10:29:43.023Z,13.12
2023-10-25T10:32:59.783Z,13.12
2023-10-25T10:36:07.062Z,13.14
2023-10-25T10:39:17.908Z,13.11
2023-10-25T10:42:25.683Z,13.09
2023-10-25T10:45:34.580Z,13.16
2023-10-25T10:48:49.361Z,13.27
2023-10-25T10:51:56.611Z,13.33
2023-10-25T10:55:03.342Z,13.45
2023-10-25T10:58:10.016Z,13.52
2023-10-25T11:01:16.800Z,13.59
2023-10-25T11:04:25.321Z,13.62
2023-10-25T11:07:32.032Z,13.70
2023-10-25T11:10:37.952Z,13.68
2023-10-25T11:13:44.818Z,13.72
2023-10-25T11:16:50.720Z,13.74
2023-10-25T11:20:01.175Z,13.75
2023-10-25T11:23:08.130Z,13.79
2023-10-25T11:26:14.863Z,13.62
2023-10-25T11:29:21.930Z,13.60
2023-10-25T11:32:28.609Z,13.67
2023-10-25T11:35:39.430Z,13.73
2023-10-25T11:38:47.439Z,13.81
2023-10-25T11:41:54.483Z,13.93
2023-10-25T11:45:03.870Z,14.11
2023-10-25T11:48:12.219Z,14.38
2023-10-25T11:51:22.831Z,14.59
2023-10-25T11:54:28.760Z,14.83
2023-10-25T11:57:37.118Z,15.09
2023-10-25T12:00:42.897Z,15.28
2023-10-25T12:03:50.201Z,15.35
2023-10-25T12:06:59.093Z,15.45
2023-10-25T12:10:06.671Z,15.52
2023-10-25T12:13:12.451Z,15.53
2023-10-25T12:16:19.135Z,15.44
2023-10-25T12:19:25.054Z,15.55
2023-10-25T12:22:34.256Z,15.45
2023-10-25T12:25:40.144Z,15.75
2023-10-25T12:28:47.054Z,16.46
2023-10-25T12:31:52.970Z,17.25
2023-10-25T12:34:59.713Z,18.10
2023-10-25T12:38:08.134Z,18.87
2023-10-25T12:41:14.781Z,19.55
2023-10-25T12:44:20.858Z,20.20
2023-10-25T12:47:27.529Z,20.74
2023-10-25T12:50:33.597Z,21.19
2023-10-25T12:53:43.304Z,21.41
2023-10-25T12:56:49.624Z,21.37
2023-10-25T12:59:56.350Z,21.17
2023-10-25T13:03:02.301Z,20.94
2023-10-25T13:06:09.964Z,20.82
2023-10-25T13:09:18.486Z,20.58
2023-10-25T13:12:25.224Z,20.25
2023-10-25T13:15:31.232Z,19.98
2023-10-25T13:18:38.010Z,19.70
2023-10-25T13:21:45.002Z,19.55
2023-10-25T13:24:54.206Z,19.25
2023-10-25T13:28:00.291Z,18.98
2023-10-25T13:31:07.400Z,18.88
2023-10-25T13:34:13.304Z,18.71
2023-10-25T13:37:20.943Z,18.59
2023-10-25T13:40:29.357Z,18.42
2023-10-25T13:43:40.912Z,18.32
2023-10-25T13:46:46.748Z,18.32
2023-10-25T13:49:53.417Z,18.38
2023-10-25T13:52:59.275Z,18.39
2023-10-25T13:56:10.143Z,18.36
2023-10-25T13:59:16.241Z,18.29
2023-10-25T14:02:22.913Z,18.28
2023-10-25T14:05:28.828Z,18.22
2023-10-25T14:08:36.260Z,18.15
2023-10-25T14:11:48.093Z,18.07
2023-10-25T14:14:54.839Z,18.02
2023-10-25T14:18:00.915Z,17.97
2023-10-25T14:21:16.504Z,17.92
2023-10-25T14:24:26.224Z,17.76
2023-10-25T14:27:39.943Z,17.60
2023-10-25T14:30:47.559Z,17.51
2023-10-25T14:33:55.095Z,17.49
2023-10-25T14:37:00.966Z,17.45
2023-10-25T14:40:10.518Z,17.43
2023-10-25T14:43:18.976Z,17.43
2023-10-25T14:46:28.840Z,17.40
2023-10-25T14:49:35.069Z,17.37
2023-10-25T14:52:44.656Z,17.14
2023-10-25T14:55:50.878Z,17.10
2023-10-25T14:59:00.394Z,17.02
2023-10-25T15:02:06.231Z,16.95
2023-10-25T15:05:13.522Z,16.97
2023-10-25T15:08:19.400Z,16.93
2023-10-25T15:11:26.448Z,16.91
2023-10-25T15:14:39.410Z,16.83
2023-10-25T15:17:49.877Z,16.67
2023-10-25T15:20:56.093Z,16.53
2023-10-25T15:24:02.796Z,16.39
2023-10-25T15:27:08.828Z,16.21
2023-10-25T15:30:19.956Z,16.01
2023-10-25T15:33:26.104Z,15.84
2023-10-25T15:36:32.751Z,15.67
2023-10-25T15:39:38.696Z,15.45
2023-10-25T15:42:47.038Z,15.31
2023-10-25T15:45:55.894Z,15.17
2023-10-25T15:49:03.711Z,15.03
2023-10-25T15:52:12.374Z,14.95
2023-10-25T15:55:19.193Z,14.79
2023-10-25T15:58:25.078Z,14.67
2023-10-25T16:01:45.460Z,14.51
2023-10-25T16:05:00.293Z,14.40
2023-10-25T16:08:07.043Z,14.28
2023-10-25T16:11:16.677Z,14.17
2023-10-25T16:14:24.597Z,14.07
2023-10-25T16:17:33.250Z,13.90
2023-10-25T16:20:44.486Z,13.70
2023-10-25T16:23:50.574Z,13.50
2023-10-25T16:26:58.206Z,13.38
2023-10-25T16:30:04.391Z,13.32
2023-10-25T16:33:13.914Z,13.28
2023-10-25T16:36:19.799Z,13.19
2023-10-25T16:39:26.359Z,13.10
2023-10-25T16:42:32.716Z,12.99
2023-10-25T16:45:39.873Z,12.90
2023-10-25T16:48:48.953Z,12.83
2023-10-25T16:51:55.610Z,12.76
2023-10-25T16:55:01.869Z,12.70
2023-10-25T16:58:08.516Z,12.61
2023-10-25T17:01:17.453Z,12.52
2023-10-25T17:04:26.850Z,12.43
2023-10-25T17:07:32.927Z,12.36
2023-10-25T17:10:40.367Z,12.26
2023-10-25T17:13:46.171Z,12.20
2023-10-25T17:16:52.985Z,12.14
2023-10-25T17:20:01.448Z,12.08
2023-10-25T17:23:08.066Z,12.05
2023-10-25T17:26:15.186Z,11.98
2023-10-25T17:29:21.968Z,11.92
2023-10-25T17:32:30.826Z,11.86
2023-10-25T17:35:40.357Z,11.79
2023-10-25T17:38:46.169Z,11.74
2023-10-25T17:41:52.830Z,11.73
2023-10-25T17:44:58.786Z,11.72
2023-10-25T17:48:05.484Z,11.68
2023-10-25T17:51:14.626Z,11.63
2023-10-25T17:54:21.422Z,11.56
2023-10-25T17:57:27.594Z,11.45
2023-10-25T18:00:34.464Z,11.36
2023-10-25T18:03:40.562Z,11.25
2023-10-25T18:07:06.541Z,11.16
2023-10-25T18:10:14.280Z,11.08
2023-10-25T18:13:21.417Z,11.05
2023-10-25T18:16:27.322Z,11.03
2023-10-25T18:19:34.077Z,11.03
2023-10-25T18:22:42.987Z,11.02
2023-10-25T18:25:50.329Z,10.97
2023-10-25T18:28:56.228Z,10.95
2023-10-25T18:32:24.311Z,10.88
2023-10-25T18:35:30.396Z,10.80
2023-10-25T18:38:40.082Z,10.73
2023-10-25T18:41:46.122Z,10.71
2023-10-25T18:44:57.916Z,10.62
2023-10-25T18:48:03.843Z,10.58
2023-10-25T18:51:14.479Z,10.54
2023-10-25T18:54:23.217Z,10.48
2023-10-25T18:57:29.927Z,10.45
2023-10-25T19:00:35.974Z,10.45
2023-10-25T19:03:42.873Z,10.46
2023-10-25T19:07:01.204Z,10.46
2023-10-25T19:10:29.774Z,10.48
2023-10-25T19:13:36.853Z,10.46
2023-10-25T19:16:43.836Z,10.43
2023-10-25T19:19:58.155Z,10.45
2023-10-25T19:23:16.687Z,10.43
2023-10-25T19:26:27.612Z,10.41
2023-10-25T19:29:40.431Z,10.38
2023-10-25T19:32:46.702Z,10.29
2023-10-25T19:35:53.273Z,10.30
2023-10-25T19:39:07.290Z,10.25
2023-10-25T19:42:16.690Z,10.18
2023-10-25T19:45:23.527Z,10.13
2023-10-25T19:48:30.332Z,10.14
2023-10-25T19:51:37.331Z,10.13
2023-10-25T19:54:44.431Z,10.16
2023-10-25T19:57:55.798Z,10.19
2023-10-25T20:01:02.560Z,10.16
2023-10-25T20:04:09.123Z,10.13
2023-10-25T20:07:15.953Z,10.09
2023-10-25T20:10:22.222Z,10.00
2023-10-25T20:13:31.778Z,9.86
2023-10-25T20:16:37.654Z,9.71
2023-10-25T20:19:44.209Z,9.62
2023-10-25T20:22:50.040Z,9.58
2023-10-25T20:26:00.236Z,9.54
2023-10-25T20:29:11.914Z,9.52
2023-10-25T20:32:18.586Z,9.53
2023-10-25T20:35:24.488Z,9.55
2023-10-25T20:38:31.501Z,9.48
2023-10-25T20:41:37.345Z,9.50
2023-10-25T20:44:50.017Z,9.49
2023-10-25T20:47:56.000Z,9.53
2023-10-25T20:51:05.094Z,9.56
2023-10-25T20:54:11.146Z,9.55
2023-10-25T20:57:17.731Z,9.56
2023-10-25T21:00:26.444Z,9.58
2023-10-25T21:03:33.878Z,9.57
2023-10-25T21:06:40.192Z,9.52
2023-10-25T21:09:47.031Z,9.46
2023-10-25T21:12:53.044Z,9.38
2023-10-25T21:16:05.273Z,9.29
2023-10-25T21:19:11.294Z,9.22
2023-10-25T21:22:17.972Z,9.18
2023-10-25T21:25:23.732Z,9.13
2023-10-25T21:28:30.562Z,9.00
2023-10-25T21:31:39.088Z,9.05
2023-10-25T21:34:46.262Z,9.03
2023-10-25T21:37:52.707Z,9.05
2023-10-25T21:40:59.618Z,9.08
2023-10-25T21:44:05.426Z,9.03
2023-10-25T21:47:14.774Z,8.97
2023-10-25T21:50:20.821Z,8.86
2023-10-25T21:53:27.590Z,8.89
2023-10-25T21:56:33.392Z,8.86
2023-10-25T21:59:48.697Z,8.84
2023-10-25T22:03:02.099Z,8.83
2023-10-25T22:06:09.323Z,8.75
2023-10-25T22:09:15.814Z,8.72
2023-10-25T22:12:22.699Z,8.67
2023-10-25T22:15:29.630Z,8.69
2023-10-25T22:18:38.822Z,8.72
2023-10-25T22:21:45.251Z,8.74
2023-10-25T22:24:51.794Z,8.72
2023-10-25T22:28:00.155Z,8.73
2023-10-25T22:31:07.676Z,8.62
2023-10-25T22:34:19.658Z,8.75
2023-10-25T22:37:26.776Z,8.71
2023-10-25T22:40:32.317Z,8.60
2023-10-25T22:43:38.702Z,8.65
2023-10-25T22:46:44.362Z,8.62
2023-10-25T22:49:53.608Z,8.61
2023-10-25T22:52:59.243Z,8.59
2023-10-25T22:56:12.622Z,8.60
2023-10-25T22:59:18.259Z,8.62
2023-10-25T23:02:25.239Z,8.63
2023-10-25T23:05:33.524Z,8.65
2023-10-25T23:08:40.008Z,8.72
2023-10-25T23:11:45.833Z,8.76
2023-10-25T23:14:52.337Z,8.79
2023-10-25T23:17:58.193Z,8.82
2023-10-25T23:21:08.399Z,8.87
2023-10-25T23:24:14.151Z,8.88
2023-10-25T23:27:20.581Z,8.99
2023-10-25T23:30:26.175Z,9.05
2023-10-25T23:33:32.661Z,9.08
2023-10-25T23:36:40.880Z,9.12
2023-10-25T23:39:47.408Z,9.12
2023-10-25T23:42:53.137Z,9.12
2023-10-25T23:46:00.406Z,9.10
2023-10-25T23:49:06.337Z,9.09
2023-10-25T23:52:15.701Z,9.07
2023-10-25T23:55:21.381Z,9.08
2023-10-25T23:58:27.945Z,9.09
